AYPY

Port Moresby Jacksons International Airport

Port Moresby, Papua New Guinea
METAR AYPY 240300Z 15020KT 9999 SCT030 28/21 Q1011 RMK: BUSH FIRE TO EASTERN GRASS AREA OF RWY 14L
Observed Flight Rules
Sep-24 @ 03:00 UTC (45 minutes ago) Visual Flight Rules
Wind Visibility Clouds
150° at 20 knots 10,000+ meters
  • Scattered at 3,000' AGL
Temperatures Readings
Current 28°C / 82°F
Dewpoint 21°C / 70°F
Humidity 66%
Altimeter 29.85" Hg
Pressure 1011 hPa
Elevation 47
METAR AYPY 240300Z 15020KT 9999 SCT030 28/21 Q1011 RMK: BUSH FIRE TO EASTERN GRASS AREA OF RWY 14L
Observed Flight Rules
Sep-24 @ 03:00 UTC
(45 minutes ago)
VFR
Wind Visibility
150° at 20 knots 10,000+ meters
Clouds
  • Scattered at 3,000' AGL
Temperature Dewpoint
28°C / 82°F 21°C / 70°F
Humidity Altimeter Pressure
66% 29.85" Hg 1011 hPa